sensor_id;sensor_type;location;lat;lon;timestamp;P1;durP1;ratioP1;P2;durP2;ratioP2
59524;SDS011;45346;51.728;5.732;2022-07-23T13:21:35;0.00;;;0.00;;
59524;SDS011;45346;51.728;5.732;2022-07-23T13:24:00;0.00;;;0.00;;
59524;SDS011;45346;51.728;5.732;2022-07-23T13:26:26;0.00;;;0.00;;
59524;SDS011;45346;51.728;5.732;2022-07-23T13:28:52;0.00;;;0.00;;
59524;SDS011;45346;51.728;5.732;2022-07-23T13:31:17;0.10;;;0.10;;
59524;SDS011;45346;51.728;5.732;2022-07-23T13:33:43;0.00;;;0.00;;
59524;SDS011;45346;51.728;5.732;2022-07-23T13:36:08;0.00;;;0.00;;
59524;SDS011;45346;51.728;5.732;2022-07-23T13:38:34;0.00;;;0.00;;
59524;SDS011;45346;51.728;5.732;2022-07-23T13:40:59;0.00;;;0.00;;
59524;SDS011;45346;51.728;5.732;2022-07-23T13:43:25;0.00;;;0.00;;
59524;SDS011;45346;51.728;5.732;2022-07-23T13:45:51;0.00;;;0.00;;
59524;SDS011;45346;51.728;5.732;2022-07-23T13:48:17;0.00;;;0.00;;
59524;SDS011;45346;51.728;5.732;2022-07-23T13:50:42;0.00;;;0.00;;
59524;SDS011;45346;51.728;5.732;2022-07-23T13:53:09;0.00;;;0.00;;
59524;SDS011;45346;51.728;5.732;2022-07-23T13:55:36;0.00;;;0.00;;
59524;SDS011;45346;51.728;5.732;2022-07-23T13:58:02;0.00;;;0.00;;
59524;SDS011;45346;51.728;5.732;2022-07-23T14:00:29;0.00;;;0.00;;
59524;SDS011;45346;51.728;5.732;2022-07-23T14:02:55;0.10;;;0.00;;
59524;SDS011;45346;51.728;5.732;2022-07-23T14:05:21;0.00;;;0.00;;
59524;SDS011;45346;51.728;5.732;2022-07-23T14:07:47;0.10;;;0.10;;
59524;SDS011;45346;51.728;5.732;2022-07-23T14:10:14;0.00;;;0.00;;
59524;SDS011;45346;51.728;5.732;2022-07-23T14:12:40;0.00;;;0.00;;
59524;SDS011;45346;51.728;5.732;2022-07-23T14:15:06;0.08;;;0.08;;
59524;SDS011;45346;51.728;5.732;2022-07-23T14:17:33;0.00;;;0.00;;
59524;SDS011;45346;51.728;5.732;2022-07-23T14:19:58;0.00;;;0.00;;
59524;SDS011;45346;51.728;5.732;2022-07-23T14:22:24;0.00;;;0.00;;
59524;SDS011;45346;51.728;5.732;2022-07-23T14:24:49;0.00;;;0.00;;
59524;SDS011;45346;51.728;5.732;2022-07-23T14:27:15;0.00;;;0.00;;
59524;SDS011;45346;51.728;5.732;2022-07-23T14:29:40;0.00;;;0.00;;
59524;SDS011;45346;51.728;5.732;2022-07-23T14:32:05;0.00;;;0.00;;
59524;SDS011;45346;51.728;5.732;2022-07-23T14:34:31;0.00;;;0.00;;
59524;SDS011;45346;51.728;5.732;2022-07-23T14:36:57;0.00;;;0.00;;
59524;SDS011;45346;51.728;5.732;2022-07-23T14:39:23;0.00;;;0.00;;
59524;SDS011;45346;51.728;5.732;2022-07-23T14:41:48;0.00;;;0.00;;
59524;SDS011;45346;51.728;5.732;2022-07-23T14:44:13;0.00;;;0.00;;
59524;SDS011;45346;51.728;5.732;2022-07-23T14:46:39;0.00;;;0.00;;
59524;SDS011;45346;51.728;5.732;2022-07-23T14:49:04;0.05;;;0.05;;
59524;SDS011;45346;51.728;5.732;2022-07-23T14:51:29;0.00;;;0.00;;
59524;SDS011;45346;51.728;5.732;2022-07-23T14:53:55;0.00;;;0.00;;
59524;SDS011;45346;51.728;5.732;2022-07-23T14:56:20;0.00;;;0.00;;
59524;SDS011;45346;51.728;5.732;2022-07-23T14:58:46;0.00;;;0.00;;
59524;SDS011;45346;51.728;5.732;2022-07-23T15:01:11;0.00;;;0.00;;
59524;SDS011;45346;51.728;5.732;2022-07-23T15:03:36;0.00;;;0.00;;
59524;SDS011;45346;51.728;5.732;2022-07-23T15:06:02;0.00;;;0.00;;
59524;SDS011;45346;51.728;5.732;2022-07-23T15:08:27;0.00;;;0.00;;
59524;SDS011;45346;51.728;5.732;2022-07-23T15:10:52;0.00;;;0.00;;
59524;SDS011;45346;51.728;5.732;2022-07-23T15:13:18;0.00;;;0.00;;
59524;SDS011;45346;51.728;5.732;2022-07-23T15:15:43;0.00;;;0.00;;
59524;SDS011;45346;51.728;5.732;2022-07-23T15:18:09;0.00;;;0.00;;
59524;SDS011;45346;51.728;5.732;2022-07-23T15:20:35;0.00;;;0.00;;
59524;SDS011;45346;51.728;5.732;2022-07-23T15:23:02;0.00;;;0.00;;
59524;SDS011;45346;51.728;5.732;2022-07-23T15:25:27;0.00;;;0.00;;
59524;SDS011;45346;51.728;5.732;2022-07-23T15:27:53;0.00;;;0.00;;
59524;SDS011;45346;51.728;5.732;2022-07-23T15:30:18;0.00;;;0.00;;
59524;SDS011;45346;51.728;5.732;2022-07-23T15:32:43;0.00;;;0.00;;
59524;SDS011;45346;51.728;5.732;2022-07-23T15:35:08;0.10;;;0.00;;
59524;SDS011;45346;51.728;5.732;2022-07-23T15:37:34;0.00;;;0.00;;
59524;SDS011;45346;51.728;5.732;2022-07-23T15:40:00;0.00;;;0.00;;
59524;SDS011;45346;51.728;5.732;2022-07-23T15:42:25;0.00;;;0.00;;
59524;SDS011;45346;51.728;5.732;2022-07-23T15:44:51;0.00;;;0.00;;
59524;SDS011;45346;51.728;5.732;2022-07-23T15:47:17;0.30;;;0.00;;
59524;SDS011;45346;51.728;5.732;2022-07-23T15:49:43;0.00;;;0.00;;
59524;SDS011;45346;51.728;5.732;2022-07-23T15:52:09;0.03;;;0.03;;
59524;SDS011;45346;51.728;5.732;2022-07-23T15:54:35;0.00;;;0.00;;
59524;SDS011;45346;51.728;5.732;2022-07-23T15:57:02;0.05;;;0.00;;
59524;SDS011;45346;51.728;5.732;2022-07-23T15:59:28;0.00;;;0.00;;
59524;SDS011;45346;51.728;5.732;2022-07-23T16:01:53;0.03;;;0.00;;
59524;SDS011;45346;51.728;5.732;2022-07-23T16:04:19;0.00;;;0.00;;
59524;SDS011;45346;51.728;5.732;2022-07-23T16:06:44;0.00;;;0.00;;
59524;SDS011;45346;51.728;5.732;2022-07-23T16:09:09;0.00;;;0.00;;
59524;SDS011;45346;51.728;5.732;2022-07-23T16:11:35;0.00;;;0.00;;
59524;SDS011;45346;51.728;5.732;2022-07-23T16:14:00;0.00;;;0.00;;
59524;SDS011;45346;51.728;5.732;2022-07-23T16:16:26;0.00;;;0.00;;
59524;SDS011;45346;51.728;5.732;2022-07-23T16:18:52;0.00;;;0.00;;
59524;SDS011;45346;51.728;5.732;2022-07-23T16:21:18;0.00;;;0.00;;
59524;SDS011;45346;51.728;5.732;2022-07-23T16:23:43;0.00;;;0.00;;
59524;SDS011;45346;51.728;5.732;2022-07-23T16:26:09;0.00;;;0.00;;
59524;SDS011;45346;51.728;5.732;2022-07-23T16:28:34;0.00;;;0.00;;
59524;SDS011;45346;51.728;5.732;2022-07-23T16:30:59;0.00;;;0.00;;
59524;SDS011;45346;51.728;5.732;2022-07-23T16:33:25;0.00;;;0.00;;
59524;SDS011;45346;51.728;5.732;2022-07-23T16:35:50;0.00;;;0.00;;
59524;SDS011;45346;51.728;5.732;2022-07-23T16:38:16;0.00;;;0.00;;
59524;SDS011;45346;51.728;5.732;2022-07-23T16:40:41;0.00;;;0.00;;
59524;SDS011;45346;51.728;5.732;2022-07-23T16:43:06;0.00;;;0.00;;
59524;SDS011;45346;51.728;5.732;2022-07-23T16:45:31;0.10;;;0.00;;
59524;SDS011;45346;51.728;5.732;2022-07-23T16:47:57;0.00;;;0.00;;
59524;SDS011;45346;51.728;5.732;2022-07-23T16:50:22;0.00;;;0.00;;
59524;SDS011;45346;51.728;5.732;2022-07-23T16:52:48;0.00;;;0.00;;
59524;SDS011;45346;51.728;5.732;2022-07-23T16:55:13;0.00;;;0.00;;
59524;SDS011;45346;51.728;5.732;2022-07-23T16:57:38;0.00;;;0.00;;
59524;SDS011;45346;51.728;5.732;2022-07-23T17:00:04;0.00;;;0.00;;
59524;SDS011;45346;51.728;5.732;2022-07-23T17:02:30;0.00;;;0.00;;
59524;SDS011;45346;51.728;5.732;2022-07-23T17:04:56;0.00;;;0.00;;
59524;SDS011;45346;51.728;5.732;2022-07-23T17:07:21;0.00;;;0.00;;
59524;SDS011;45346;51.728;5.732;2022-07-23T17:09:46;0.00;;;0.00;;
59524;SDS011;45346;51.728;5.732;2022-07-23T17:12:12;0.00;;;0.00;;
59524;SDS011;45346;51.728;5.732;2022-07-23T17:14:37;0.00;;;0.00;;
59524;SDS011;45346;51.728;5.732;2022-07-23T17:17:03;0.00;;;0.00;;
59524;SDS011;45346;51.728;5.732;2022-07-23T17:19:29;0.00;;;0.00;;
59524;SDS011;45346;51.728;5.732;2022-07-23T17:21:54;0.03;;;0.03;;
59524;SDS011;45346;51.728;5.732;2022-07-23T17:24:20;0.00;;;0.00;;
59524;SDS011;45346;51.728;5.732;2022-07-23T17:26:45;0.03;;;0.03;;
59524;SDS011;45346;51.728;5.732;2022-07-23T17:29:10;0.00;;;0.00;;
59524;SDS011;45346;51.728;5.732;2022-07-23T17:31:36;0.00;;;0.00;;
59524;SDS011;45346;51.728;5.732;2022-07-23T17:34:01;0.00;;;0.00;;
59524;SDS011;45346;51.728;5.732;2022-07-23T17:36:27;0.00;;;0.00;;
59524;SDS011;45346;51.728;5.732;2022-07-23T17:38:52;0.00;;;0.00;;
59524;SDS011;45346;51.728;5.732;2022-07-23T17:41:18;0.00;;;0.00;;
59524;SDS011;45346;51.728;5.732;2022-07-23T17:43:43;0.00;;;0.00;;
59524;SDS011;45346;51.728;5.732;2022-07-23T17:46:08;0.00;;;0.00;;
59524;SDS011;45346;51.728;5.732;2022-07-23T17:48:34;0.00;;;0.00;;
59524;SDS011;45346;51.728;5.732;2022-07-23T17:50:59;0.00;;;0.00;;
59524;SDS011;45346;51.728;5.732;2022-07-23T17:53:26;0.00;;;0.00;;
59524;SDS011;45346;51.728;5.732;2022-07-23T17:55:52;0.00;;;0.00;;
59524;SDS011;45346;51.728;5.732;2022-07-23T17:58:17;0.00;;;0.00;;
59524;SDS011;45346;51.728;5.732;2022-07-23T18:00:43;0.00;;;0.00;;
59524;SDS011;45346;51.728;5.732;2022-07-23T18:03:09;0.00;;;0.00;;
59524;SDS011;45346;51.728;5.732;2022-07-23T18:05:34;0.00;;;0.00;;
59524;SDS011;45346;51.728;5.732;2022-07-23T18:08:00;0.00;;;0.00;;
59524;SDS011;45346;51.728;5.732;2022-07-23T18:10:27;0.00;;;0.00;;
59524;SDS011;45346;51.728;5.732;2022-07-23T18:12:53;0.00;;;0.00;;
59524;SDS011;45346;51.728;5.732;2022-07-23T18:15:18;0.00;;;0.00;;
59524;SDS011;45346;51.728;5.732;2022-07-23T18:17:44;0.00;;;0.00;;
59524;SDS011;45346;51.728;5.732;2022-07-23T18:20:09;0.05;;;0.00;;
59524;SDS011;45346;51.728;5.732;2022-07-23T18:22:35;0.00;;;0.00;;
59524;SDS011;45346;51.728;5.732;2022-07-23T18:25:01;0.00;;;0.00;;
59524;SDS011;45346;51.728;5.732;2022-07-23T18:27:26;0.00;;;0.00;;
59524;SDS011;45346;51.728;5.732;2022-07-23T18:29:54;0.00;;;0.00;;
59524;SDS011;45346;51.728;5.732;2022-07-23T18:32:20;0.00;;;0.00;;
59524;SDS011;45346;51.728;5.732;2022-07-23T18:34:45;0.00;;;0.00;;
59524;SDS011;45346;51.728;5.732;2022-07-23T18:37:10;0.00;;;0.00;;
59524;SDS011;45346;51.728;5.732;2022-07-23T18:39:36;0.00;;;0.00;;
59524;SDS011;45346;51.728;5.732;2022-07-23T18:42:01;0.00;;;0.00;;
59524;SDS011;45346;51.728;5.732;2022-07-23T18:44:29;0.10;;;0.00;;
59524;SDS011;45346;51.728;5.732;2022-07-23T18:46:55;0.00;;;0.00;;
59524;SDS011;45346;51.728;5.732;2022-07-23T18:49:20;0.00;;;0.00;;
59524;SDS011;45346;51.728;5.732;2022-07-23T18:51:46;0.00;;;0.00;;
59524;SDS011;45346;51.728;5.732;2022-07-23T18:54:11;0.00;;;0.00;;
59524;SDS011;45346;51.728;5.732;2022-07-23T18:56:38;0.00;;;0.00;;
59524;SDS011;45346;51.728;5.732;2022-07-23T18:59:04;0.00;;;0.00;;
59524;SDS011;45346;51.728;5.732;2022-07-23T19:01:29;0.00;;;0.00;;
59524;SDS011;45346;51.728;5.732;2022-07-23T19:03:55;0.00;;;0.00;;
59524;SDS011;45346;51.728;5.732;2022-07-23T19:06:21;0.00;;;0.00;;
59524;SDS011;45346;51.728;5.732;2022-07-23T19:08:47;0.00;;;0.00;;
59524;SDS011;45346;51.728;5.732;2022-07-23T19:11:12;0.00;;;0.00;;
59524;SDS011;45346;51.728;5.732;2022-07-23T19:13:37;0.00;;;0.00;;
59524;SDS011;45346;51.728;5.732;2022-07-23T19:16:03;0.00;;;0.00;;
59524;SDS011;45346;51.728;5.732;2022-07-23T19:18:30;0.00;;;0.00;;
59524;SDS011;45346;51.728;5.732;2022-07-23T19:20:55;0.00;;;0.00;;
59524;SDS011;45346;51.728;5.732;2022-07-23T19:23:21;0.00;;;0.00;;
59524;SDS011;45346;51.728;5.732;2022-07-23T19:25:46;0.00;;;0.00;;
59524;SDS011;45346;51.728;5.732;2022-07-23T19:28:11;0.08;;;0.08;;
59524;SDS011;45346;51.728;5.732;2022-07-23T19:30:37;0.08;;;0.08;;
59524;SDS011;45346;51.728;5.732;2022-07-23T19:33:04;0.15;;;0.00;;
59524;SDS011;45346;51.728;5.732;2022-07-23T19:35:29;0.10;;;0.10;;
59524;SDS011;45346;51.728;5.732;2022-07-23T19:37:56;0.00;;;0.00;;
59524;SDS011;45346;51.728;5.732;2022-07-23T19:40:21;0.00;;;0.00;;
59524;SDS011;45346;51.728;5.732;2022-07-23T19:42:47;0.00;;;0.00;;
59524;SDS011;45346;51.728;5.732;2022-07-23T19:45:12;0.00;;;0.00;;
59524;SDS011;45346;51.728;5.732;2022-07-23T19:47:38;0.00;;;0.00;;
59524;SDS011;45346;51.728;5.732;2022-07-23T19:50:08;0.00;;;0.00;;
59524;SDS011;45346;51.728;5.732;2022-07-23T19:52:34;0.00;;;0.00;;
59524;SDS011;45346;51.728;5.732;2022-07-23T19:54:59;0.00;;;0.00;;
59524;SDS011;45346;51.728;5.732;2022-07-23T19:57:25;1.25;;;0.10;;
59524;SDS011;45346;51.728;5.732;2022-07-23T19:59:50;0.00;;;0.00;;
59524;SDS011;45346;51.728;5.732;2022-07-23T20:02:15;0.10;;;0.10;;
59524;SDS011;45346;51.728;5.732;2022-07-23T20:04:41;0.00;;;0.00;;
59524;SDS011;45346;51.728;5.732;2022-07-23T20:07:06;0.03;;;0.03;;
59524;SDS011;45346;51.728;5.732;2022-07-23T20:09:36;0.00;;;0.00;;
59524;SDS011;45346;51.728;5.732;2022-07-23T20:12:02;0.08;;;0.08;;
59524;SDS011;45346;51.728;5.732;2022-07-23T20:14:27;0.10;;;0.10;;
59524;SDS011;45346;51.728;5.732;2022-07-23T20:16:53;0.00;;;0.00;;
59524;SDS011;45346;51.728;5.732;2022-07-23T20:19:18;0.10;;;0.10;;
59524;SDS011;45346;51.728;5.732;2022-07-23T20:21:43;0.10;;;0.10;;
59524;SDS011;45346;51.728;5.732;2022-07-23T20:24:11;0.20;;;0.20;;
59524;SDS011;45346;51.728;5.732;2022-07-23T20:26:37;0.17;;;0.17;;
59524;SDS011;45346;51.728;5.732;2022-07-23T20:29:03;0.25;;;0.25;;
59524;SDS011;45346;51.728;5.732;2022-07-23T20:31:28;0.30;;;0.30;;
59524;SDS011;45346;51.728;5.732;2022-07-23T20:33:54;0.40;;;0.40;;
59524;SDS011;45346;51.728;5.732;2022-07-23T20:36:19;0.38;;;0.38;;
59524;SDS011;45346;51.728;5.732;2022-07-23T20:38:44;0.52;;;0.52;;
59524;SDS011;45346;51.728;5.732;2022-07-23T20:41:10;1.08;;;0.68;;
59524;SDS011;45346;51.728;5.732;2022-07-23T20:43:35;0.65;;;0.65;;
59524;SDS011;45346;51.728;5.732;2022-07-23T20:46:00;0.63;;;0.63;;
59524;SDS011;45346;51.728;5.732;2022-07-23T20:48:26;1.25;;;0.65;;
59524;SDS011;45346;51.728;5.732;2022-07-23T20:50:51;0.80;;;0.80;;
59524;SDS011;45346;51.728;5.732;2022-07-23T20:53:16;2.08;;;0.73;;
59524;SDS011;45346;51.728;5.732;2022-07-23T20:55:42;0.80;;;0.80;;
59524;SDS011;45346;51.728;5.732;2022-07-23T20:58:07;1.98;;;1.17;;
59524;SDS011;45346;51.728;5.732;2022-07-23T21:00:33;1.00;;;1.00;;
59524;SDS011;45346;51.728;5.732;2022-07-23T21:02:58;1.27;;;1.20;;
59524;SDS011;45346;51.728;5.732;2022-07-23T21:05:23;1.55;;;1.30;;
59524;SDS011;45346;51.728;5.732;2022-07-23T21:07:49;1.55;;;1.45;;
59524;SDS011;45346;51.728;5.732;2022-07-23T21:10:14;1.65;;;1.55;;
59524;SDS011;45346;51.728;5.732;2022-07-23T21:12:40;1.95;;;1.85;;
59524;SDS011;45346;51.728;5.732;2022-07-23T21:15:05;2.05;;;1.95;;
59524;SDS011;45346;51.728;5.732;2022-07-23T21:17:31;2.38;;;1.75;;
59524;SDS011;45346;51.728;5.732;2022-07-23T21:19:57;2.60;;;2.40;;
59524;SDS011;45346;51.728;5.732;2022-07-23T21:22:22;2.80;;;2.60;;
59524;SDS011;45346;51.728;5.732;2022-07-23T21:24:47;4.47;;;2.95;;
59524;SDS011;45346;51.728;5.732;2022-07-23T21:27:13;4.82;;;3.15;;
59524;SDS011;45346;51.728;5.732;2022-07-23T21:29:40;4.43;;;3.25;;
59524;SDS011;45346;51.728;5.732;2022-07-23T21:32:05;5.90;;;3.72;;
59524;SDS011;45346;51.728;5.732;2022-07-23T21:34:30;4.47;;;4.03;;
59524;SDS011;45346;51.728;5.732;2022-07-23T21:36:56;4.55;;;3.60;;
59524;SDS011;45346;51.728;5.732;2022-07-23T21:39:21;5.53;;;3.63;;
59524;SDS011;45346;51.728;5.732;2022-07-23T21:41:47;6.55;;;3.80;;
59524;SDS011;45346;51.728;5.732;2022-07-23T21:44:12;5.25;;;4.07;;
59524;SDS011;45346;51.728;5.732;2022-07-23T21:46:37;5.65;;;4.65;;
59524;SDS011;45346;51.728;5.732;2022-07-23T21:49:03;10.68;;;5.18;;
59524;SDS011;45346;51.728;5.732;2022-07-23T21:51:29;7.50;;;5.30;;
59524;SDS011;45346;51.728;5.732;2022-07-23T21:53:55;8.05;;;5.30;;
59524;SDS011;45346;51.728;5.732;2022-07-23T21:56:21;11.05;;;5.55;;
59524;SDS011;45346;51.728;5.732;2022-07-23T21:58:46;8.32;;;5.72;;
59524;SDS011;45346;51.728;5.732;2022-07-23T22:01:11;7.85;;;5.68;;
59524;SDS011;45346;51.728;5.732;2022-07-23T22:03:37;7.72;;;5.07;;
59524;SDS011;45346;51.728;5.732;2022-07-23T22:06:02;8.57;;;6.05;;
59524;SDS011;45346;51.728;5.732;2022-07-23T22:08:28;7.70;;;5.60;;
59524;SDS011;45346;51.728;5.732;2022-07-23T22:10:53;8.63;;;6.25;;
59524;SDS011;45346;51.728;5.732;2022-07-23T22:13:18;7.28;;;5.40;;
59524;SDS011;45346;51.728;5.732;2022-07-23T22:15:43;9.93;;;5.72;;
59524;SDS011;45346;51.728;5.732;2022-07-23T22:18:09;7.78;;;5.53;;
59524;SDS011;45346;51.728;5.732;2022-07-23T22:20:34;8.73;;;5.90;;
59524;SDS011;45346;51.728;5.732;2022-07-23T22:23:00;8.80;;;5.85;;
59524;SDS011;45346;51.728;5.732;2022-07-23T22:25:25;8.73;;;6.30;;
59524;SDS011;45346;51.728;5.732;2022-07-23T22:27:51;5.90;;;5.25;;
59524;SDS011;45346;51.728;5.732;2022-07-23T22:30:16;5.50;;;4.82;;
59524;SDS011;45346;51.728;5.732;2022-07-23T22:32:43;6.05;;;5.05;;
59524;SDS011;45346;51.728;5.732;2022-07-23T22:35:09;5.43;;;4.85;;
59524;SDS011;45346;51.728;5.732;2022-07-23T22:37:34;5.03;;;4.55;;
59524;SDS011;45346;51.728;5.732;2022-07-23T22:40:00;6.50;;;4.88;;
59524;SDS011;45346;51.728;5.732;2022-07-23T22:42:25;8.88;;;5.00;;
59524;SDS011;45346;51.728;5.732;2022-07-23T22:44:51;7.43;;;4.70;;
59524;SDS011;45346;51.728;5.732;2022-07-23T22:47:16;5.10;;;4.63;;
59524;SDS011;45346;51.728;5.732;2022-07-23T22:49:41;11.02;;;6.10;;
59524;SDS011;45346;51.728;5.732;2022-07-23T22:52:07;6.80;;;5.32;;
59524;SDS011;45346;51.728;5.732;2022-07-23T22:54:32;6.20;;;5.18;;
59524;SDS011;45346;51.728;5.732;2022-07-23T22:56:57;7.07;;;5.50;;
59524;SDS011;45346;51.728;5.732;2022-07-23T22:59:23;9.80;;;5.05;;
59524;SDS011;45346;51.728;5.732;2022-07-23T23:01:48;5.20;;;4.70;;
59524;SDS011;45346;51.728;5.732;2022-07-23T23:04:13;8.25;;;5.40;;
59524;SDS011;45346;51.728;5.732;2022-07-23T23:06:39;6.88;;;5.60;;
59524;SDS011;45346;51.728;5.732;2022-07-23T23:09:04;7.38;;;5.40;;
59524;SDS011;45346;51.728;5.732;2022-07-23T23:11:29;6.80;;;5.80;;
59524;SDS011;45346;51.728;5.732;2022-07-23T23:13:55;6.90;;;5.32;;
59524;SDS011;45346;51.728;5.732;2022-07-23T23:16:20;6.78;;;5.65;;
59524;SDS011;45346;51.728;5.732;2022-07-23T23:18:45;7.22;;;5.88;;
59524;SDS011;45346;51.728;5.732;2022-07-23T23:21:11;10.30;;;6.65;;
59524;SDS011;45346;51.728;5.732;2022-07-23T23:23:36;11.32;;;6.18;;
59524;SDS011;45346;51.728;5.732;2022-07-23T23:26:01;9.35;;;7.00;;
59524;SDS011;45346;51.728;5.732;2022-07-23T23:28:27;10.38;;;7.03;;
59524;SDS011;45346;51.728;5.732;2022-07-23T23:30:52;9.35;;;6.80;;
59524;SDS011;45346;51.728;5.732;2022-07-23T23:33:17;10.48;;;6.75;;
59524;SDS011;45346;51.728;5.732;2022-07-23T23:35:43;7.97;;;6.28;;
59524;SDS011;45346;51.728;5.732;2022-07-23T23:38:08;8.57;;;6.75;;
59524;SDS011;45346;51.728;5.732;2022-07-23T23:40:33;7.72;;;6.65;;
59524;SDS011;45346;51.728;5.732;2022-07-23T23:42:59;7.13;;;6.25;;
59524;SDS011;45346;51.728;5.732;2022-07-23T23:45:24;12.00;;;7.40;;
59524;SDS011;45346;51.728;5.732;2022-07-23T23:47:49;11.85;;;7.63;;
59524;SDS011;45346;51.728;5.732;2022-07-23T23:50:15;9.60;;;6.97;;
59524;SDS011;45346;51.728;5.732;2022-07-23T23:52:40;10.40;;;7.13;;
59524;SDS011;45346;51.728;5.732;2022-07-23T23:55:06;8.90;;;7.30;;
59524;SDS011;45346;51.728;5.732;2022-07-23T23:57:31;10.10;;;7.32;;
59524;SDS011;45346;51.728;5.732;2022-07-23T23:59:57;7.32;;;6.03;;
